Accord, Massachusetts
Current Conditions -  °F | °C
As of 5:30 AM on Wednesday 22 Oct 2014 (Local Time) from KGHG Reporting Station
Overcast Overcast  
Wind Chill: 57°   Ceiling: 500
Heat Index: 57°   Visibility: 10mi
Dew Point: 57°   Wind: 10mph
Humidity: 100%   Direction: 50°NE
Pressure: 29.97"   Gusts: 20mph
Location:  42.17°N, 70.88°W
Report Text: KGHG 220930Z AUTO 05009G17KT 10SM OVC005 14/14 A2997 RMK AO2
Loading
Personal Weather Stations






























Interactive Weather Map
Tropical Storm Tracking
New forecast layout! Learn more

10-Day Weather Forecast

Advertisements
Track Severe Weather on mobile